Flight Track Log - Related Links

Times and Time Zones

All times are in EDT time to prevent confusion due to time zone crossing. See the PDT4129 flight status page for this flight to view local times or setup timezone preferences in your user account.

Time Position Orientation Groundspeed Altitude Reporting Facility
EDT Latitude Longitude Course Direction KTS MPH feet Rate Location/Type
Wed 07:15:00 AM 35.7272 -77.9464 282° West  Level FlightAware
Wed 07:16:00 AM 35.7390 -78.0171 282° West  Level FlightAware
Wed 07:17:00 AM 35.7500 -78.0879 270° West  Level FlightAware
Wed 07:18:00 AM 35.7614 -78.1562 302° West  Level FlightAware
Wed 07:19:00 AM 35.7763 -78.2254 281° West  Level FlightAware
Wed 07:20:00 AM 35.7879 -78.2962 281° West  Level FlightAware
Wed 07:21:00 AM 35.7995 -78.3670 281° West  Level FlightAware
Wed 07:22:00 AM 35.8111 -78.4379 281° West  Level FlightAware
Wed 07:23:00 AM 35.8226 -78.5087 281° West  Level FlightAware
Wed 07:24:00 AM 35.8340 -78.5796 281° West  Level FlightAware
Wed 07:25:00 AM 35.8454 -78.6505 281° West  Level FlightAware
Wed 07:26:00 AM 35.8568 -78.7215 281° West  Level FlightAware
Wed 07:27:00 AM 35.8660 -78.7925 265° West  Level FlightAware
Wed 07:28:00 AM 35.8608 -78.8646 265° West  Level FlightAware
Wed 07:29:00 AM 35.8555 -78.9366 265° West  Level FlightAware
Wed 07:30:00 AM 35.8502 -79.0086 265° West  Level FlightAware
Wed 07:31:00 AM 35.8448 -79.0806 265° West  Level FlightAware
Wed 07:32:00 AM 35.8394 -79.1526 265° West  Level FlightAware
Wed 07:33:00 AM 35.8340 -79.2246 265° West  Level FlightAware
Wed 07:34:00 AM 35.8285 -79.2965 265° West  Level FlightAware
Wed 07:35:00 AM 35.8230 -79.3685 265° West  Level FlightAware
Wed 07:36:00 AM 35.8174 -79.4404 265° West  Level FlightAware
Wed 07:37:00 AM 35.8098 -79.5121 262° West  Level FlightAware
Wed 07:38:00 AM 35.8018 -79.5837 262° West  Level FlightAware
Wed 07:39:00 AM 35.8001 -79.6558 270° West  Level FlightAware
Wed 07:40:00 AM 35.8003 -79.7280 270° West  Level FlightAware
Wed 07:41:00 AM 35.8004 -79.8003 270° West  Level FlightAware
Wed 07:42:00 AM 35.8004 -79.8725 270° West  Level FlightAware
Wed 07:43:00 AM 35.8005 -79.9448 270° West  Level FlightAware
Wed 07:44:00 AM 35.8004 -80.0171 270° West  Level FlightAware
Wed 07:45:00 AM 35.8004 -80.0893 270° West  Level FlightAware
Wed 07:46:00 AM 35.8002 -80.1616 270° West  Level FlightAware
Wed 07:47:00 AM 35.8001 -80.2338 270° West  Level FlightAware
Wed 07:48:00 AM 35.8000 -80.3061 270° West  Level FlightAware
Wed 07:49:00 AM 35.8000 -80.3783 270° West  Level FlightAware
Wed 07:50:00 AM 35.7880 -80.4423 211° Southwest  Level FlightAware
Wed 07:51:00 AM 35.7380 -80.4799 211° Southwest  Level FlightAware
Wed 07:52:00 AM 35.6921 -80.5246 219° Southwest  Level FlightAware
Wed 07:53:00 AM 35.6446 -80.5666 211° Southwest  Level FlightAware
Wed 07:54:00 AM 35.5927 -80.6055 211° Southwest  Level FlightAware
Wed 07:55:00 AM 35.5408 -80.6444 211° Southwest  Level FlightAware
Wed 07:56:00 AM 35.4930 -80.6904 219° Southwest  Level FlightAware
Wed 07:57:00 AM 35.4433 -80.7334 214° Southwest  Level FlightAware
Wed 07:58:00 AM 35.3931 -80.7752 214° Southwest  Level FlightAware
Wed 07:59:00 AM 35.3399 -80.8101 219° Southwest  Level FlightAware
Wed 08:00:00 AM 35.2928 -80.8572 219° Southwest  Level FlightAware
Wed 08:01:00 AM 35.2419 -80.8977 212° Southwest  Level FlightAware
Wed 08:02:00 AM 35.2137 -80.9491 219° Southwest  Level Estimated
Wed 08:03:00 AM 35.2137 -80.9491 39° Northeast  Level Estimated
Wed 08:04:00 AM 35.2137 -80.9491 39° Northeast  Level Estimated
Wed 08:05:00 AM 35.2137 -80.9491 39° Northeast  Level Estimated
Wed 08:06:00 AM 35.2137 -80.9491 39° Northeast  Level Estimated
Wed 08:07:00 AM 35.2137 -80.9491 39° Northeast  Level Estimated
Wed 08:08:00 AM 35.2137 -80.9491 39° Northeast  Level Estimated
Wed 08:09:00 AM 35.2137 -80.9491 39° Northeast  Level Estimated
Wed 08:10:00 AM 35.2137 -80.9491 39° Northeast  Level Estimated
Wed 08:11:00 AM 35.2137 -80.9491 39° Northeast  Level Estimated
Wed 08:12:00 AM 35.2137 -80.9491 39° Northeast  Level Estimated
Wed 08:13:00 AM 35.2137 -80.9491 39° Northeast  Level Estimated
Wed 08:14:00 AM 35.2137 -80.9491 39° Northeast  Level Estimated
Wed 08:15:00 AM 35.2137 -80.9491 39° Northeast  Level Estimated
Wed 08:16:00 AM 35.2137 -80.9491 39° Northeast  Level Estimated
Wed 08:17:00 AM 35.2137 -80.9491 39° Northeast  Level Estimated

Login

Don't have an account? Register now (free) for customized features, flight alerts, and more!